Time;durP1;ratioP1;P1;durP2;ratioP2;P2;SDS_P1;SDS_P2;PMS_P1;PMS_P2;Temp;Humidity;BMP_temperature;BMP_pressure;BME280_temperature;BME280_humidity;BME280_pressure;Samples;Min_cycle;Max_cycle;Signal;HPM_P1;HPM_P2
2020/12/07 00:01:05;;;;;;;66.40;26.77;;;4.50;99.90;;;;;;5114933;28;20100;-82
2020/12/07 00:03:30;;;;;;;65.45;26.60;;;4.60;99.90;;;;;;5116832;28;20081;-82
2020/12/07 00:05:56;;;;;;;65.22;26.02;;;4.70;99.90;;;;;;5118250;28;20035;-83
2020/12/07 00:08:21;;;;;;;65.88;26.75;;;4.70;99.90;;;;;;5118426;28;20044;-82
2020/12/07 00:10:48;;;;;;;74.32;28.00;;;4.70;99.90;;;;;;5118148;28;20106;-80
2020/12/07 00:13:16;;;;;;;74.25;28.02;;;4.60;99.90;;;;;;5117309;28;20115;-82
2020/12/07 00:15:42;;;;;;;74.00;27.75;;;4.60;99.90;;;;;;5118398;28;20036;-83
2020/12/07 00:18:07;;;;;;;65.65;26.35;;;4.60;99.90;;;;;;5117849;28;20073;-83
2020/12/07 00:20:33;;;;;;;71.18;28.17;;;4.50;99.90;;;;;;5116543;28;20070;-81
2020/12/07 00:22:59;;;;;;;69.57;27.15;;;4.50;99.90;;;;;;5117275;28;20039;-83
2020/12/07 00:25:24;;;;;;;73.38;29.80;;;4.50;99.90;;;;;;5119421;28;20036;-81
2020/12/07 00:27:51;;;;;;;75.93;29.40;;;4.50;99.90;;;;;;5118739;28;20039;-83
2020/12/07 00:30:16;;;;;;;66.53;28.27;;;4.50;99.90;;;;;;5122115;28;20052;-81
2020/12/07 00:32:42;;;;;;;64.05;27.20;;;4.50;99.90;;;;;;5128378;28;20042;-80
2020/12/07 00:35:07;;;;;;;74.47;28.88;;;4.60;99.90;;;;;;5129481;28;20040;-82
2020/12/07 00:37:33;;;;;;;68.00;26.77;;;4.60;99.90;;;;;;5131112;28;20750;-80
2020/12/07 00:39:59;;;;;;;68.25;25.67;;;4.60;99.90;;;;;;5117684;28;20043;-81
2020/12/07 00:42:24;;;;;;;73.25;26.48;;;4.60;99.90;;;;;;5114900;28;20043;-81
2020/12/07 00:44:51;;;;;;;62.00;26.65;;;4.60;99.90;;;;;;5115231;28;20039;-82
2020/12/07 00:47:16;;;;;;;67.78;27.98;;;4.70;99.90;;;;;;5116183;28;20451;-82
2020/12/07 00:49:43;;;;;;;60.65;26.23;;;4.70;99.90;;;;;;5115260;28;20035;-82
2020/12/07 00:52:08;;;;;;;63.42;26.00;;;4.60;99.90;;;;;;5115037;28;20039;-81
2020/12/07 00:54:35;;;;;;;65.10;25.15;;;4.60;99.90;;;;;;5114097;28;20072;-81
2020/12/07 00:57:01;;;;;;;65.55;26.52;;;4.70;99.90;;;;;;5114107;28;20416;-82
2020/12/07 00:59:28;;;;;;;68.60;26.33;;;4.70;99.90;;;;;;5113782;28;20036;-82
2020/12/07 01:01:56;;;;;;;65.82;26.08;;;4.60;99.90;;;;;;5113644;28;20036;-81
2020/12/07 01:04:22;;;;;;;64.00;26.45;;;4.60;99.90;;;;;;5113551;28;20052;-80
2020/12/07 01:06:48;;;;;;;63.15;26.80;;;4.60;99.90;;;;;;5112966;28;20520;-82
2020/12/07 01:09:14;;;;;;;61.83;26.20;;;4.60;99.90;;;;;;5113818;28;20043;-80
2020/12/07 01:11:42;;;;;;;66.47;26.02;;;4.50;99.90;;;;;;5112758;28;20063;-80
2020/12/07 01:14:08;;;;;;;68.50;26.10;;;4.50;99.90;;;;;;5108799;28;20067;-80
2020/12/07 01:16:35;;;;;;;72.25;27.10;;;4.40;99.90;;;;;;5110061;28;20492;-81
2020/12/07 01:19:04;;;;;;;69.88;26.35;;;4.40;99.90;;;;;;5114027;28;20435;-82
2020/12/07 01:21:31;;;;;;;74.53;25.63;;;4.30;99.90;;;;;;5114309;28;20047;-82
2020/12/07 01:23:57;;;;;;;74.25;28.23;;;4.30;99.90;;;;;;5114722;28;20040;-81
2020/12/07 01:26:22;;;;;;;69.63;27.85;;;4.40;99.90;;;;;;5113306;28;20042;-82
2020/12/07 01:28:48;;;;;;;74.53;27.73;;;4.30;99.90;;;;;;5114228;28;20036;-80
2020/12/07 01:31:14;;;;;;;76.75;29.55;;;4.40;99.90;;;;;;5112854;28;20040;-80
2020/12/07 01:33:39;;;;;;;71.85;27.10;;;4.50;99.90;;;;;;5111503;28;20036;-81
2020/12/07 01:36:06;;;;;;;71.50;27.52;;;4.40;99.90;;;;;;5113364;28;20047;-80
2020/12/07 01:38:31;;;;;;;71.60;28.23;;;4.40;99.90;;;;;;5115965;28;20078;-82
2020/12/07 01:40:57;;;;;;;74.03;28.10;;;4.30;99.90;;;;;;5117535;28;20100;-83
2020/12/07 01:43:23;;;;;;;70.93;26.85;;;4.20;99.90;;;;;;5118278;28;20032;-81
2020/12/07 01:45:48;;;;;;;71.10;27.20;;;4.30;99.90;;;;;;5117974;28;20067;-81
2020/12/07 01:48:14;;;;;;;67.05;26.63;;;4.40;99.90;;;;;;5109630;28;20063;-82
2020/12/07 01:50:41;;;;;;;63.67;26.25;;;4.50;99.90;;;;;;5097011;28;20036;-80
2020/12/07 01:53:09;;;;;;;68.45;25.77;;;4.40;99.90;;;;;;5099509;28;20032;-83
2020/12/07 01:55:37;;;;;;;77.43;27.10;;;4.50;99.90;;;;;;5099578;28;20047;-82
2020/12/07 01:58:02;;;;;;;79.85;28.25;;;4.50;99.90;;;;;;5100888;28;20048;-80
2020/12/07 02:00:28;;;;;;;71.53;27.08;;;4.50;99.90;;;;;;5099420;28;20047;-80
2020/12/07 02:02:54;;;;;;;67.53;28.08;;;4.60;99.90;;;;;;5101644;28;20043;-80
2020/12/07 02:05:19;;;;;;;75.85;28.48;;;4.20;99.90;;;;;;5101193;28;20043;-81
2020/12/07 02:07:45;;;;;;;73.57;28.02;;;4.00;99.90;;;;;;5100458;28;20039;-81
2020/12/07 02:10:12;;;;;;;68.80;27.70;;;4.00;99.90;;;;;;5099152;28;20096;-83
2020/12/07 02:12:37;;;;;;;66.50;27.42;;;4.10;99.90;;;;;;5099843;28;20036;-82
2020/12/07 02:15:03;;;;;;;65.55;26.10;;;4.30;99.90;;;;;;5099510;28;20040;-81
2020/12/07 02:17:29;;;;;;;77.05;28.08;;;4.40;99.90;;;;;;5101340;28;20040;-81
2020/12/07 02:19:55;;;;;;;74.78;26.40;;;4.50;99.90;;;;;;5099419;28;20040;-82
2020/12/07 02:22:21;;;;;;;71.15;27.45;;;4.50;99.90;;;;;;5101495;28;20040;-82
2020/12/07 02:24:46;;;;;;;76.65;27.95;;;4.50;99.90;;;;;;5099809;28;20039;-82
2020/12/07 02:27:12;;;;;;;72.65;28.98;;;4.30;99.90;;;;;;5101824;28;20054;-83
2020/12/07 02:29:37;;;;;;;78.72;27.58;;;4.00;99.90;;;;;;5100090;28;20036;-82
2020/12/07 02:32:11;;;;;;;78.10;29.23;;;4.20;99.90;;;;;;5101735;28;20047;-82
2020/12/07 02:34:38;;;;;;;84.75;29.02;;;4.20;99.90;;;;;;5100246;28;20055;-82
2020/12/07 02:37:04;;;;;;;84.45;28.02;;;4.00;99.90;;;;;;5101407;28;20055;-82
2020/12/07 02:39:30;;;;;;;77.80;28.23;;;3.90;99.90;;;;;;5100744;28;20055;-82
2020/12/07 02:41:55;;;;;;;86.75;30.85;;;3.90;99.90;;;;;;5100333;28;20036;-81
2020/12/07 02:44:21;;;;;;;83.85;30.10;;;3.90;99.90;;;;;;5099101;28;20101;-80
2020/12/07 02:46:47;;;;;;;77.07;28.80;;;3.90;99.90;;;;;;5094352;28;20547;-80
2020/12/07 02:49:12;;;;;;;86.47;29.08;;;4.00;99.90;;;;;;5095101;28;20036;-80
2020/12/07 02:51:38;;;;;;;89.28;29.77;;;4.10;99.90;;;;;;5094440;28;20073;-80
2020/12/07 02:54:04;;;;;;;82.15;29.30;;;3.90;99.90;;;;;;5095939;28;20036;-81
2020/12/07 02:56:30;;;;;;;71.18;26.70;;;3.90;99.90;;;;;;5100064;28;20054;-82
2020/12/07 02:58:55;;;;;;;72.72;27.05;;;3.80;99.90;;;;;;5100917;28;20036;-82
2020/12/07 03:01:21;;;;;;;82.63;27.25;;;3.90;99.90;;;;;;5101450;28;20044;-83
2020/12/07 03:03:46;;;;;;;74.65;28.20;;;3.80;99.90;;;;;;5100249;28;20040;-81
2020/12/07 03:06:12;;;;;;;69.47;26.40;;;3.90;99.90;;;;;;5100181;28;20039;-82
2020/12/07 03:08:38;;;;;;;72.05;25.38;;;3.90;99.90;;;;;;5101298;28;20400;-82
2020/12/07 03:11:05;;;;;;;76.28;26.05;;;3.80;99.90;;;;;;5099376;28;20126;-82
2020/12/07 03:13:30;;;;;;;73.63;25.80;;;3.90;99.90;;;;;;5099425;28;20157;-82
2020/12/07 03:15:56;;;;;;;66.10;24.48;;;3.80;99.90;;;;;;5098330;28;20066;-80
2020/12/07 03:18:21;;;;;;;68.72;25.65;;;3.80;99.90;;;;;;5095913;28;20044;-80
2020/12/07 03:20:47;;;;;;;69.72;25.58;;;3.70;99.90;;;;;;5093594;28;20379;-80
2020/12/07 03:23:13;;;;;;;65.57;25.00;;;3.70;99.90;;;;;;5093934;28;20037;-81
2020/12/07 03:25:38;;;;;;;69.57;25.48;;;3.60;99.90;;;;;;5098241;28;20036;-82
2020/12/07 03:28:05;;;;;;;72.68;25.30;;;3.70;99.90;;;;;;5098726;28;20036;-82
2020/12/07 03:30:31;;;;;;;72.07;24.50;;;3.70;99.90;;;;;;5099566;28;20043;-82
2020/12/07 03:32:56;;;;;;;65.82;24.65;;;3.80;99.90;;;;;;5098639;28;20075;-82
2020/12/07 03:35:22;;;;;;;58.63;22.63;;;3.80;99.90;;;;;;5097097;28;20044;-82
2020/12/07 03:37:48;;;;;;;63.72;24.38;;;3.90;99.90;;;;;;5102239;28;20036;-82
2020/12/07 03:40:13;;;;;;;65.13;24.15;;;3.90;99.90;;;;;;5111090;28;20473;-82
2020/12/07 03:42:39;;;;;;;61.45;22.13;;;3.90;99.90;;;;;;5118937;28;20043;-82
2020/12/07 03:45:06;;;;;;;54.65;21.70;;;4.00;99.90;;;;;;5119181;28;20028;-82
2020/12/07 03:47:31;;;;;;;53.00;20.73;;;4.10;99.90;;;;;;5118868;28;20059;-82
2020/12/07 03:49:57;;;;;;;56.58;21.40;;;4.20;99.90;;;;;;5120169;28;20068;-81
2020/12/07 03:52:23;;;;;;;52.80;21.77;;;4.10;99.90;;;;;;5120758;28;20035;-82
2020/12/07 03:54:48;;;;;;;49.78;20.67;;;4.20;99.90;;;;;;5121047;28;20409;-82
2020/12/07 03:57:14;;;;;;;50.50;20.65;;;4.10;99.90;;;;;;5119522;28;20090;-84
2020/12/07 03:59:40;;;;;;;59.70;21.50;;;4.00;99.90;;;;;;5118696;28;20043;-83
2020/12/07 04:02:06;;;;;;;51.72;20.67;;;4.00;99.90;;;;;;5120342;28;20036;-83
2020/12/07 04:04:42;;;;;;;52.65;20.52;;;4.00;99.90;;;;;;5123065;28;20048;-84
2020/12/07 04:07:08;;;;;;;46.88;19.27;;;4.00;99.90;;;;;;5122755;28;20063;-83
2020/12/07 04:09:33;;;;;;;48.08;20.45;;;4.00;99.90;;;;;;5123552;28;20421;-83
2020/12/07 04:11:59;;;;;;;50.97;20.08;;;3.90;99.90;;;;;;5108861;28;20078;-81
2020/12/07 04:14:24;;;;;;;44.10;18.00;;;3.80;99.90;;;;;;5118628;28;20035;-82
2020/12/07 04:16:50;;;;;;;50.63;19.98;;;3.80;99.90;;;;;;5122996;28;20050;-84
2020/12/07 04:19:17;;;;;;;46.75;18.10;;;3.90;99.90;;;;;;5117452;28;20118;-81
2020/12/07 04:21:42;;;;;;;43.45;18.70;;;3.90;99.90;;;;;;5114619;28;20477;-81
2020/12/07 04:24:08;;;;;;;41.15;16.58;;;3.90;99.90;;;;;;5118468;28;20112;-81
2020/12/07 04:26:33;;;;;;;42.85;18.35;;;3.90;99.90;;;;;;5119755;28;20039;-81
2020/12/07 04:29:00;;;;;;;39.03;17.73;;;3.80;99.90;;;;;;5113479;28;20032;-81
2020/12/07 04:31:26;;;;;;;36.17;15.35;;;3.80;99.90;;;;;;5113575;28;20059;-80
2020/12/07 04:33:52;;;;;;;31.17;14.77;;;3.80;99.90;;;;;;5112308;28;20527;-81
2020/12/07 04:36:18;;;;;;;40.25;17.10;;;3.80;99.90;;;;;;5115609;28;20035;-82
2020/12/07 04:38:44;;;;;;;33.03;15.32;;;3.80;99.90;;;;;;5118024;28;20044;-82
2020/12/07 04:41:09;;;;;;;31.27;14.55;;;3.80;99.90;;;;;;5117405;28;20040;-81
2020/12/07 04:43:35;;;;;;;34.72;15.38;;;3.70;99.90;;;;;;5113567;28;20130;-81
2020/12/07 04:46:02;;;;;;;36.00;15.05;;;3.80;99.90;;;;;;5115082;28;20088;-82
2020/12/07 04:48:29;;;;;;;32.85;14.60;;;3.80;99.90;;;;;;5093976;28;20044;-81
2020/12/07 04:50:55;;;;;;;30.48;13.27;;;3.70;99.90;;;;;;5092492;28;20040;-81
2020/12/07 04:53:22;;;;;;;35.97;14.27;;;3.70;99.90;;;;;;5093263;28;20093;-81
2020/12/07 04:55:48;;;;;;;34.53;13.98;;;3.60;99.90;;;;;;5092846;28;20043;-81
2020/12/07 04:58:15;;;;;;;35.22;14.88;;;3.60;99.90;;;;;;5092480;28;20068;-81
2020/12/07 05:00:41;;;;;;;30.85;12.48;;;3.70;99.90;;;;;;5092074;28;20040;-81
2020/12/07 05:03:07;;;;;;;26.85;12.40;;;3.70;99.90;;;;;;5092940;28;20113;-81
2020/12/07 05:05:32;;;;;;;32.17;12.05;;;3.60;99.90;;;;;;5092741;28;20489;-81
2020/12/07 05:07:59;;;;;;;26.75;11.57;;;3.60;99.90;;;;;;5093407;28;20424;-81
2020/12/07 05:10:34;;;;;;;27.95;11.43;;;3.60;99.90;;;;;;5096477;28;20055;-81
2020/12/07 05:13:08;;;;;;;26.33;11.77;;;3.60;99.90;;;;;;5097169;28;20079;-81
2020/12/07 05:15:38;;;;;;;24.20;10.27;;;3.60;99.90;;;;;;5096920;28;20063;-81
2020/12/07 05:18:04;;;;;;;24.45;11.23;;;3.50;99.90;;;;;;5096343;28;20044;-81
2020/12/07 05:20:31;;;;;;;28.42;11.88;;;3.60;99.90;;;;;;5116553;28;20031;-82
2020/12/07 05:22:56;;;;;;;28.55;10.88;;;3.50;99.90;;;;;;5118028;28;20059;-80
2020/12/07 05:25:23;;;;;;;21.10;10.48;;;3.60;99.90;;;;;;5118059;28;20036;-80
2020/12/07 05:27:51;;;;;;;16.30;8.10;;;3.60;99.90;;;;;;5117000;28;20046;-80
2020/12/07 05:30:26;;;;;;;16.55;8.38;;;3.60;99.90;;;;;;5116515;28;20096;-80
2020/12/07 05:32:52;;;;;;;16.65;8.45;;;3.50;99.90;;;;;;5117841;28;20031;-80
2020/12/07 05:35:18;;;;;;;14.73;7.95;;;3.40;99.90;;;;;;5117505;28;20031;-80
2020/12/07 05:37:43;;;;;;;15.50;7.25;;;3.50;99.90;;;;;;5117795;27;20395;-80
2020/12/07 05:40:11;;;;;;;15.77;7.50;;;3.40;99.90;;;;;;5116037;28;20031;-80
2020/12/07 05:42:37;;;;;;;14.75;7.57;;;3.40;99.90;;;;;;5116322;28;20062;-80
2020/12/07 05:45:05;;;;;;;13.65;7.15;;;3.40;99.90;;;;;;5116359;28;20504;-80
2020/12/07 05:47:32;;;;;;;14.68;7.50;;;3.30;99.90;;;;;;5117649;28;20044;-80
2020/12/07 05:50:00;;;;;;;14.68;7.50;;;3.20;99.90;;;;;;5117020;28;20454;-80
2020/12/07 05:52:32;;;;;;;14.85;7.53;;;3.20;99.90;;;;;;5099420;28;20032;-80
2020/12/07 05:54:59;;;;;;;15.63;6.85;;;3.20;99.90;;;;;;5096175;28;20135;-81
2020/12/07 05:57:28;;;;;;;11.48;6.40;;;3.30;99.90;;;;;;5097259;28;20043;-81
2020/12/07 05:59:56;;;;;;;15.13;6.75;;;3.30;99.90;;;;;;5095642;28;20040;-81
2020/12/07 06:02:23;;;;;;;15.38;7.43;;;3.30;99.90;;;;;;5095991;28;20424;-81
2020/12/07 06:04:51;;;;;;;11.95;5.25;;;3.10;99.90;;;;;;5097061;28;20047;-81
2020/12/07 06:07:22;;;;;;;15.85;6.80;;;3.10;99.90;;;;;;5095741;28;20127;-81
2020/12/07 06:09:49;;;;;;;14.18;6.55;;;3.00;99.90;;;;;;5096091;28;20051;-81
2020/12/07 06:12:20;;;;;;;14.18;6.60;;;3.10;99.90;;;;;;5096166;28;20370;-81
2020/12/07 06:14:49;;;;;;;13.50;6.82;;;3.20;99.90;;;;;;5095675;28;20093;-81
2020/12/07 06:17:23;;;;;;;12.00;5.73;;;2.90;99.90;;;;;;5095601;28;20037;-80
2020/12/07 06:19:50;;;;;;;10.85;5.53;;;2.90;99.90;;;;;;5094078;28;20043;-81
2020/12/07 06:22:19;;;;;;;12.90;5.82;;;2.90;99.90;;;;;;5095376;28;20147;-81
2020/12/07 06:24:45;;;;;;;9.73;4.88;;;3.00;99.90;;;;;;5096746;28;20093;-81
2020/12/07 06:27:12;;;;;;;9.82;4.50;;;2.90;99.90;;;;;;5095441;28;20058;-81
2020/12/07 06:29:38;;;;;;;8.57;5.03;;;2.90;99.90;;;;;;5094781;28;20078;-80
2020/12/07 06:32:05;;;;;;;10.13;4.82;;;2.90;99.90;;;;;;5094715;28;20040;-80
2020/12/07 06:34:33;;;;;;;8.45;4.38;;;2.90;99.90;;;;;;5095180;28;20474;-81
2020/12/07 06:36:59;;;;;;;9.43;4.07;;;2.80;99.90;;;;;;5095421;28;20509;-81
2020/12/07 06:39:25;;;;;;;10.15;4.63;;;2.80;99.90;;;;;;5094389;28;20032;-80
2020/12/07 06:41:55;;;;;;;9.68;4.65;;;;;;;;;;5094837;28;20040;-80
2020/12/07 06:44:23;;;;;;;9.63;4.93;;;2.70;99.90;;;;;;5095093;28;20039;-80
2020/12/07 06:47:05;;;;;;;10.15;4.20;;;2.70;99.90;;;;;;5096145;28;20116;-80
2020/12/07 06:49:56;;;;;;;8.65;3.25;;;2.70;99.90;;;;;;5094365;28;20048;-80
2020/12/07 06:52:24;;;;;;;4.57;2.13;;;2.80;99.90;;;;;;5095368;28;20059;-80
2020/12/07 06:55:07;;;;;;;8.35;4.30;;;2.70;99.90;;;;;;5095754;28;20036;-80
2020/12/07 06:57:39;;;;;;;7.97;3.83;;;2.60;99.90;;;;;;5094863;28;20070;-80
2020/12/07 07:00:08;;;;;;;6.70;3.72;;;2.60;99.90;;;;;;5094368;28;20042;-80
2020/12/07 07:02:37;;;;;;;7.22;3.63;;;2.70;99.90;;;;;;5095482;28;20493;-80
2020/12/07 07:05:03;;;;;;;7.93;4.45;;;2.70;99.90;;;;;;5094199;28;20048;-80
2020/12/07 07:07:31;;;;;;;5.50;2.78;;;2.70;99.90;;;;;;5094207;28;20040;-80
2020/12/07 07:09:58;;;;;;;8.77;4.68;;;2.70;99.90;;;;;;5094234;28;20139;-80
2020/12/07 07:12:24;;;;;;;9.05;4.60;;;2.70;99.90;;;;;;5094000;28;20036;-80
2020/12/07 07:14:56;;;;;;;9.73;4.72;;;2.70;99.90;;;;;;5095450;28;20044;-80
2020/12/07 07:17:23;;;;;;;9.68;4.40;;;2.70;99.90;;;;;;5095171;28;20058;-80
2020/12/07 07:19:49;;;;;;;11.50;5.57;;;2.70;99.90;;;;;;5107753;28;20126;-80
2020/12/07 07:22:16;;;;;;;8.70;4.82;;;2.70;99.90;;;;;;5114167;28;20185;-80
2020/12/07 07:29:55;;;;;;;11.52;6.43;;;2.80;99.90;;;;;;5115135;28;20273;-80
2020/12/07 07:32:23;;;;;;;9.32;4.53;;;2.80;99.90;;;;;;5114545;28;20031;-80
2020/12/07 07:34:49;;;;;;;11.98;6.45;;;2.80;99.90;;;;;;5114025;28;20035;-80
2020/12/07 07:37:16;;;;;;;12.70;6.03;;;2.80;99.90;;;;;;5113897;28;20038;-80
2020/12/07 07:39:42;;;;;;;10.35;5.75;;;2.80;99.90;;;;;;5114681;28;20051;-80
2020/12/07 07:42:10;;;;;;;11.75;6.10;;;2.80;99.90;;;;;;5113836;28;20035;-80
2020/12/07 07:44:37;;;;;;;13.43;7.03;;;2.90;99.90;;;;;;5114037;28;20035;-80
2020/12/07 07:47:07;;;;;;;13.85;6.80;;;2.80;99.90;;;;;;5114962;28;20065;-80
2020/12/07 07:49:53;;;;;;;10.90;6.07;;;2.90;99.90;;;;;;5113360;28;20036;-79
2020/12/07 07:52:55;;;;;;;13.10;7.00;;;2.80;99.90;;;;;;5115236;28;20032;-80
2020/12/07 07:57:54;;;;;;;15.10;7.85;;;2.90;99.90;;;;;;5114911;28;20051;-80
2020/12/07 08:06:01;;;;;;;13.93;6.45;;;2.90;99.90;;;;;;5102574;28;20438;-80
2020/12/07 08:17:48;;;;;;;6.32;3.25;;;2.90;99.90;;;;;;5116727;28;20091;-79
2020/12/07 08:20:16;;;;;;;19.60;11.10;;;2.90;99.90;;;;;;5112839;28;20114;-79
2020/12/07 08:22:41;;;;;;;11.48;6.28;;;2.90;99.90;;;;;;5112984;28;20035;-80
2020/12/07 08:25:07;;;;;;;17.40;10.00;;;3.00;99.90;;;;;;5112961;28;20032;-80
2020/12/07 08:27:35;;;;;;;14.93;7.80;;;3.00;99.90;;;;;;5113019;28;20061;-80
2020/12/07 08:30:00;;;;;;;21.75;12.52;;;3.00;99.90;;;;;;5113992;28;20044;-80
2020/12/07 08:32:27;;;;;;;20.55;10.55;;;3.00;99.90;;;;;;5112932;28;20028;-80
2020/12/07 08:34:53;;;;;;;17.63;10.25;;;3.00;99.90;;;;;;5114103;28;20081;-80
2020/12/07 08:37:18;;;;;;;15.02;9.35;;;3.10;99.90;;;;;;5113093;28;20043;-80
2020/12/07 08:39:44;;;;;;;20.23;11.00;;;3.10;99.90;;;;;;5113796;28;20074;-80
2020/12/07 08:42:11;;;;;;;16.98;9.15;;;3.10;99.90;;;;;;5112721;28;20038;-80
2020/12/07 08:44:37;;;;;;;18.33;9.88;;;3.10;99.90;;;;;;5112367;28;20050;-80
2020/12/07 08:47:06;;;;;;;22.15;9.93;;;3.10;99.90;;;;;;5113479;28;20036;-80
2020/12/07 08:49:32;;;;;;;17.60;9.75;;;3.20;99.90;;;;;;5112244;28;20040;-79
2020/12/07 08:51:57;;;;;;;18.00;9.57;;;3.20;99.90;;;;;;5112702;28;20043;-81
2020/12/07 08:54:23;;;;;;;20.48;10.77;;;3.20;99.90;;;;;;5114105;28;20075;-80
2020/12/07 08:56:48;;;;;;;17.33;10.30;;;3.20;99.90;;;;;;5114003;28;20083;-80
2020/12/07 08:59:15;;;;;;;20.65;11.82;;;3.20;99.90;;;;;;5113597;28;20035;-80
2020/12/07 09:01:41;;;;;;;19.25;9.40;;;3.20;99.90;;;;;;5112589;28;20142;-79
2020/12/07 09:04:10;;;;;;;23.77;11.70;;;3.20;99.90;;;;;;5112705;28;20489;-80
2020/12/07 09:06:36;;;;;;;24.08;10.38;;;3.20;99.90;;;;;;5112742;28;20459;-80
2020/12/07 09:09:02;;;;;;;17.35;7.82;;;3.20;99.90;;;;;;5113389;28;20039;-80
2020/12/07 09:11:27;;;;;;;21.30;11.15;;;3.30;99.90;;;;;;5113818;28;20040;-80
2020/12/07 09:13:53;;;;;;;23.33;11.13;;;3.30;99.90;;;;;;5113704;28;20039;-80
2020/12/07 09:16:20;;;;;;;22.05;8.98;;;3.20;99.90;;;;;;5113161;28;20031;-79
2020/12/07 09:18:46;;;;;;;23.17;11.50;;;3.30;99.90;;;;;;5113303;28;20039;-79
2020/12/07 09:21:11;;;;;;;26.40;12.95;;;3.30;99.90;;;;;;5113672;28;20175;-80
2020/12/07 09:23:38;;;;;;;32.63;15.75;;;3.30;99.90;;;;;;5113419;28;20040;-80
2020/12/07 09:26:06;;;;;;;30.08;15.45;;;3.30;99.90;;;;;;5112411;28;20031;-80
2020/12/07 09:28:32;;;;;;;34.72;17.73;;;3.40;99.90;;;;;;5113549;28;20504;-80
2020/12/07 09:30:58;;;;;;;31.30;16.30;;;3.40;99.90;;;;;;5111316;28;20068;-80
2020/12/07 09:33:25;;;;;;;33.78;16.33;;;3.40;99.90;;;;;;5113709;28;20035;-80
2020/12/07 09:35:50;;;;;;;27.33;13.30;;;3.40;99.90;;;;;;5114261;28;20388;-80
2020/12/07 09:38:16;;;;;;;35.90;15.55;;;3.50;99.90;;;;;;5112371;28;20036;-79
2020/12/07 09:40:41;;;;;;;35.53;18.92;;;3.50;99.90;;;;;;5113190;28;20100;-80
2020/12/07 09:43:07;;;;;;;34.17;18.80;;;3.50;99.90;;;;;;5113601;28;20036;-80
2020/12/07 09:45:33;;;;;;;27.88;13.95;;;3.50;99.90;;;;;;5113382;28;20043;-80
2020/12/07 09:47:59;;;;;;;30.85;15.60;;;3.60;99.90;;;;;;5112082;28;20032;-80
2020/12/07 09:50:26;;;;;;;32.22;14.82;;;3.60;99.90;;;;;;5111750;28;20043;-80
2020/12/07 09:52:52;;;;;;;35.40;15.68;;;3.60;99.90;;;;;;5112112;28;20130;-80
2020/12/07 09:55:17;;;;;;;32.60;17.02;;;3.60;99.90;;;;;;5112939;28;20155;-80
2020/12/07 09:57:43;;;;;;;33.30;16.23;;;3.60;99.90;;;;;;5115744;28;20052;-80
2020/12/07 10:00:09;;;;;;;38.20;18.75;;;3.60;99.90;;;;;;5116603;28;20031;-80
2020/12/07 10:02:35;;;;;;;36.17;18.10;;;3.70;99.90;;;;;;5116796;28;20040;-80
2020/12/07 10:05:01;;;;;;;33.65;17.05;;;3.70;99.90;;;;;;5115496;28;20035;-80
2020/12/07 10:07:28;;;;;;;27.20;14.27;;;3.70;99.90;;;;;;5116797;28;20043;-80
2020/12/07 10:09:53;;;;;;;33.10;18.63;;;3.80;99.90;;;;;;5116107;28;20063;-80
2020/12/07 10:12:19;;;;;;;36.38;19.60;;;3.70;99.90;;;;;;5116610;28;20414;-79
2020/12/07 10:14:44;;;;;;;35.28;17.85;;;3.70;99.90;;;;;;5115308;28;20040;-79
2020/12/07 10:17:10;;;;;;;31.52;17.42;;;3.70;99.90;;;;;;5115247;28;20058;-79
2020/12/07 10:19:36;;;;;;;33.25;16.55;;;3.70;99.90;;;;;;5114784;28;20040;-80
2020/12/07 10:22:03;;;;;;;24.92;13.70;;;3.70;99.90;;;;;;5115350;28;20119;-80
2020/12/07 10:24:30;;;;;;;29.05;14.43;;;3.70;99.90;;;;;;5114519;28;20043;-80
2020/12/07 10:26:56;;;;;;;29.92;16.65;;;3.70;99.90;;;;;;5114912;27;20036;-79
2020/12/07 10:29:22;;;;;;;30.10;17.02;;;3.80;99.90;;;;;;5113118;28;20042;-80
2020/12/07 10:31:48;;;;;;;30.02;15.32;;;3.70;99.90;;;;;;5113370;28;20036;-79
2020/12/07 10:34:13;;;;;;;20.75;10.65;;;3.70;99.90;;;;;;5114353;28;20446;-80
2020/12/07 10:36:39;;;;;;;26.70;14.63;;;3.70;99.90;;;;;;5113404;28;20078;-80
2020/12/07 10:39:07;;;;;;;30.27;17.88;;;3.80;99.90;;;;;;5113037;28;20078;-80
2020/12/07 10:41:34;;;;;;;26.33;14.60;;;3.70;99.90;;;;;;5113253;28;20039;-80
2020/12/07 10:43:59;;;;;;;23.52;14.75;;;3.80;99.90;;;;;;5114461;27;20061;-80
2020/12/07 10:46:25;;;;;;;25.70;14.13;;;3.70;99.90;;;;;;5112444;28;20493;-80
2020/12/07 10:48:51;;;;;;;19.35;11.25;;;3.70;99.90;;;;;;5114136;28;20524;-80
2020/12/07 10:51:18;;;;;;;18.73;12.35;;;3.70;99.90;;;;;;5114125;28;20038;-79
2020/12/07 10:53:44;;;;;;;17.75;11.77;;;3.80;99.90;;;;;;5114243;28;20145;-80
2020/12/07 10:56:10;;;;;;;15.70;10.15;;;3.70;99.90;;;;;;5114545;28;20036;-80
2020/12/07 10:58:38;;;;;;;17.02;9.70;;;3.80;99.90;;;;;;5112785;28;20043;-80
2020/12/07 11:01:04;;;;;;;15.52;9.70;;;3.70;99.90;;;;;;5113094;28;20151;-80
2020/12/07 11:03:30;;;;;;;16.60;10.68;;;3.80;99.90;;;;;;5112757;28;20048;-80
2020/12/07 11:05:56;;;;;;;16.60;10.65;;;3.80;99.90;;;;;;5112369;28;20488;-80
2020/12/07 11:08:31;;;;;;;19.52;11.63;;;3.80;99.90;;;;;;5112910;28;20040;-80
2020/12/07 11:10:56;;;;;;;15.88;11.02;;;3.90;99.90;;;;;;5113453;28;20038;-80
2020/12/07 11:13:27;;;;;;;12.15;6.68;;;3.90;99.90;;;;;;5112535;28;20039;-80
2020/12/07 11:15:53;;;;;;;17.13;9.15;;;3.90;99.90;;;;;;5113882;28;20124;-80
2020/12/07 11:18:19;;;;;;;16.42;10.27;;;3.90;99.90;;;;;;5112174;28;20075;-80
2020/12/07 11:20:44;;;;;;;14.85;8.45;;;3.90;99.90;;;;;;5111924;28;20120;-80
2020/12/07 11:23:10;;;;;;;11.32;7.32;;;3.90;99.90;;;;;;5111711;28;20048;-80
2020/12/07 11:25:36;;;;;;;14.20;9.15;;;3.90;99.90;;;;;;5113623;28;20403;-81
2020/12/07 11:28:02;;;;;;;15.23;9.65;;;3.90;99.90;;;;;;5113803;28;20043;-80
2020/12/07 11:30:27;;;;;;;14.82;9.18;;;3.90;99.90;;;;;;5111863;28;20039;-81
2020/12/07 11:32:54;;;;;;;15.60;9.35;;;3.90;99.90;;;;;;5112441;28;20031;-79
2020/12/07 11:35:19;;;;;;;15.13;10.52;;;4.00;99.90;;;;;;5113429;28;20119;-80
2020/12/07 11:37:50;;;;;;;16.90;10.80;;;4.00;99.90;;;;;;5112290;28;20154;-80
2020/12/07 11:43:40;;;;;;;17.65;11.07;;;4.00;99.90;;;;;;5113301;28;20128;-79
2020/12/07 11:45:42;;;;;;;15.73;9.20;;;4.10;99.90;;;;;;5107483;28;20044;-80
2020/12/07 11:48:09;;;;;;;13.80;9.00;;;4.10;99.90;;;;;;5111733;28;20628;-80
2020/12/07 11:50:35;;;;;;;15.77;10.60;;;4.10;99.90;;;;;;5112771;28;20043;-79
2020/12/07 11:53:00;;;;;;;16.38;9.52;;;4.10;99.90;;;;;;5113143;28;20108;-80
2020/12/07 11:55:26;;;;;;;17.70;10.68;;;4.10;99.90;;;;;;5094059;28;20440;-80
2020/12/07 11:57:51;;;;;;;17.20;9.65;;;4.10;99.90;;;;;;5091054;28;20044;-80
2020/12/07 12:00:17;;;;;;;20.02;10.70;;;4.10;99.90;;;;;;5091072;28;20479;-80
2020/12/07 12:02:43;;;;;;;14.98;8.75;;;4.10;99.90;;;;;;5092883;28;20044;-80
2020/12/07 12:05:09;;;;;;;11.10;6.75;;;4.10;99.90;;;;;;5092776;28;20032;-80
2020/12/07 12:07:35;;;;;;;14.00;8.52;;;4.10;99.90;;;;;;5091463;28;20509;-79
2020/12/07 12:10:00;;;;;;;14.05;9.50;;;4.10;99.90;;;;;;5090732;28;20036;-79
2020/12/07 12:12:26;;;;;;;15.25;9.05;;;4.10;99.90;;;;;;5090942;28;20093;-79
2020/12/07 12:14:52;;;;;;;12.80;8.50;;;4.00;99.90;;;;;;5090829;28;20093;-80
2020/12/07 12:17:17;;;;;;;15.07;9.20;;;4.10;99.90;;;;;;5091334;28;20119;-81
2020/12/07 12:19:43;;;;;;;13.70;8.35;;;4.00;99.90;;;;;;5089823;28;20032;-80
2020/12/07 12:22:09;;;;;;;10.88;7.70;;;4.00;99.90;;;;;;5090407;28;20094;-80
2020/12/07 12:24:35;;;;;;;8.88;5.88;;;4.10;99.90;;;;;;5090954;28;20044;-80
2020/12/07 12:27:01;;;;;;;11.57;7.82;;;4.10;99.90;;;;;;5090860;28;20047;-80
2020/12/07 12:29:27;;;;;;;10.05;7.07;;;4.10;99.90;;;;;;5091399;28;20040;-80
2020/12/07 12:31:52;;;;;;;9.27;6.43;;;4.10;99.90;;;;;;5090720;28;20131;-80
2020/12/07 12:34:18;;;;;;;11.82;7.18;;;4.10;99.90;;;;;;5091598;28;20089;-80
2020/12/07 12:36:49;;;;;;;12.07;7.38;;;4.10;99.90;;;;;;5091708;28;20070;-80
2020/12/07 12:39:16;;;;;;;11.68;7.18;;;4.00;99.90;;;;;;5090228;28;20036;-80
2020/12/07 12:41:42;;;;;;;11.60;7.20;;;4.10;99.90;;;;;;5090422;28;20052;-79
2020/12/07 12:44:08;;;;;;;12.63;7.72;;;4.10;99.90;;;;;;5090732;28;20043;-79
2020/12/07 12:46:33;;;;;;;9.45;5.80;;;4.10;99.90;;;;;;5090456;28;20678;-79
2020/12/07 12:48:59;;;;;;;13.38;8.55;;;4.10;99.90;;;;;;5090395;28;20143;-79
2020/12/07 12:51:25;;;;;;;13.65;7.97;;;4.10;99.90;;;;;;5091893;28;20374;-80
2020/12/07 12:53:50;;;;;;;13.40;7.93;;;4.10;99.90;;;;;;5090732;28;20036;-80
2020/12/07 12:56:17;;;;;;;11.40;7.68;;;4.10;99.90;;;;;;5090742;28;20067;-79
2020/12/07 12:58:42;;;;;;;11.55;7.53;;;4.10;99.90;;;;;;5089277;28;20417;-80
2020/12/07 13:01:08;;;;;;;11.02;7.32;;;4.20;99.90;;;;;;5090654;28;20050;-79
2020/12/07 13:03:34;;;;;;;9.88;6.97;;;4.20;99.90;;;;;;5091796;28;20028;-80